createdAt,value
2022-11-10T00:00:49.171Z,11.80
2022-11-10T00:03:37.026Z,11.80
2022-11-10T00:06:25.559Z,11.70
2022-11-10T00:09:16.117Z,11.60
2022-11-10T00:12:06.252Z,11.50
2022-11-10T00:15:11.103Z,11.40
2022-11-10T00:17:58.128Z,11.20
2022-11-10T00:20:44.844Z,11.10
2022-11-10T00:23:31.678Z,11.00
2022-11-10T00:26:20.975Z,10.90
2022-11-10T00:29:07.854Z,10.80
2022-11-10T00:31:54.633Z,10.80
2022-11-10T00:34:41.313Z,10.80
2022-11-10T00:37:28.033Z,10.80
2022-11-10T00:40:14.980Z,10.80
2022-11-10T00:43:02.965Z,10.80
2022-11-10T00:45:51.096Z,10.90
2022-11-10T00:48:38.355Z,10.80
2022-11-10T00:51:27.146Z,10.80
2022-11-10T00:54:14.927Z,10.80
2022-11-10T00:57:01.588Z,10.80
2022-11-10T01:00:07.938Z,10.80
2022-11-10T01:02:57.168Z,10.80
2022-11-10T01:05:45.013Z,10.80
2022-11-10T01:08:32.605Z,10.90
2022-11-10T01:11:21.137Z,10.90
2022-11-10T01:14:09.021Z,10.90
2022-11-10T01:16:57.282Z,10.90
2022-11-10T01:19:44.301Z,10.90
2022-11-10T01:22:31.741Z,10.80
2022-11-10T01:25:18.995Z,10.80
2022-11-10T01:28:06.003Z,10.80
2022-11-10T01:30:58.839Z,10.70
2022-11-10T01:33:47.071Z,10.70
2022-11-10T01:36:33.742Z,10.60
2022-11-10T01:39:20.588Z,10.60
2022-11-10T01:42:07.621Z,10.60
2022-11-10T01:45:32.171Z,10.50
2022-11-10T01:48:29.805Z,10.50
2022-11-10T01:51:21.120Z,10.40
2022-11-10T01:54:12.906Z,10.40
2022-11-10T01:57:03.557Z,10.40
2022-11-10T01:59:50.855Z,10.40
2022-11-10T02:02:43.010Z,10.40
2022-11-10T02:05:30.076Z,10.40
2022-11-10T02:08:19.863Z,10.50
2022-11-10T02:11:06.830Z,10.50
2022-11-10T02:13:54.300Z,10.50
2022-11-10T02:16:41.527Z,10.60
2022-11-10T02:19:28.621Z,10.60
2022-11-10T02:22:17.112Z,10.70
2022-11-10T02:25:04.669Z,10.70
2022-11-10T02:27:51.412Z,10.70
2022-11-10T02:30:38.577Z,10.70
2022-11-10T02:33:25.621Z,10.70
2022-11-10T02:36:12.979Z,10.70
2022-11-10T02:39:01.420Z,10.70
2022-11-10T02:41:48.644Z,10.70
2022-11-10T02:44:35.798Z,10.60
2022-11-10T02:47:23.608Z,10.60
2022-11-10T02:50:11.130Z,10.50
2022-11-10T02:52:57.916Z,10.50
2022-11-10T02:55:46.621Z,10.50
2022-11-10T02:58:33.606Z,10.50
2022-11-10T03:01:20.978Z,10.60
2022-11-10T03:04:07.978Z,10.60
2022-11-10T03:06:55.058Z,10.60
2022-11-10T03:09:42.104Z,10.50
2022-11-10T03:12:30.221Z,10.50
2022-11-10T03:15:17.466Z,10.50
2022-11-10T03:18:05.589Z,10.50
2022-11-10T03:20:52.715Z,10.50
2022-11-10T03:23:39.361Z,10.50
2022-11-10T03:26:26.080Z,10.50
2022-11-10T03:29:14.233Z,10.50
2022-11-10T03:32:01.154Z,10.40
2022-11-10T03:34:47.871Z,10.30
2022-11-10T03:37:34.982Z,10.20
2022-11-10T03:40:22.507Z,10.10
2022-11-10T03:43:09.521Z,10.00
2022-11-10T03:45:57.732Z,9.90
2022-11-10T03:48:47.488Z,9.90
2022-11-10T03:51:39.154Z,9.80
2022-11-10T03:54:26.143Z,9.70
2022-11-10T03:57:13.152Z,9.70
2022-11-10T03:59:59.833Z,9.60
2022-11-10T04:02:48.114Z,9.50
2022-11-10T04:05:52.237Z,9.40
2022-11-10T04:08:56.391Z,9.40
2022-11-10T04:12:01.230Z,9.30
2022-11-10T04:15:05.653Z,9.20
2022-11-10T04:17:54.158Z,9.20
2022-11-10T04:20:41.011Z,9.10
2022-11-10T04:23:30.989Z,9.10
2022-11-10T04:26:29.972Z,9.10
2022-11-10T04:29:18.676Z,9.00
2022-11-10T04:32:05.914Z,9.00
2022-11-10T04:34:54.207Z,8.90
2022-11-10T04:37:41.227Z,8.90
2022-11-10T04:40:27.920Z,8.80
2022-11-10T04:43:14.634Z,8.80
2022-11-10T04:46:01.924Z,8.70
2022-11-10T04:48:49.563Z,8.70
2022-11-10T04:51:40.069Z,8.60
2022-11-10T04:54:27.384Z,8.60
2022-11-10T04:57:14.002Z,8.60
2022-11-10T05:00:01.000Z,8.60
2022-11-10T05:02:47.681Z,8.60
2022-11-10T05:05:34.870Z,8.60
2022-11-10T05:08:23.129Z,8.50
2022-11-10T05:11:10.979Z,8.50
2022-11-10T05:13:57.803Z,8.40
2022-11-10T05:16:44.884Z,8.30
2022-11-10T05:19:31.888Z,8.20
2022-11-10T05:22:18.639Z,8.10
2022-11-10T05:25:08.493Z,8.00
2022-11-10T05:27:55.151Z,7.90
2022-11-10T05:30:42.667Z,7.80
2022-11-10T05:33:29.496Z,7.70
2022-11-10T05:36:16.672Z,7.70
2022-11-10T05:39:03.558Z,7.70
2022-11-10T05:41:51.870Z,7.70
2022-11-10T05:44:38.745Z,7.60
2022-11-10T05:47:25.741Z,7.60
2022-11-10T05:50:13.013Z,7.60
2022-11-10T05:52:59.820Z,7.60
2022-11-10T05:55:46.576Z,7.50
2022-11-10T05:58:34.571Z,7.50
2022-11-10T06:01:21.258Z,7.50
2022-11-10T06:04:08.163Z,7.40
2022-11-10T06:06:55.045Z,7.30
2022-11-10T06:09:41.960Z,7.30
2022-11-10T06:12:30.340Z,7.20
2022-11-10T06:15:18.945Z,7.20
2022-11-10T06:18:06.049Z,7.10
2022-11-10T06:20:52.927Z,7.10
2022-11-10T06:23:39.730Z,7.00
2022-11-10T06:26:26.351Z,7.00
2022-11-10T06:29:13.163Z,7.00
2022-11-10T06:32:01.705Z,6.90
2022-11-10T06:34:49.141Z,7.00
2022-11-10T06:37:36.038Z,7.00
2022-11-10T06:40:22.987Z,7.00
2022-11-10T06:43:10.599Z,7.10
2022-11-10T06:46:00.366Z,7.10
2022-11-10T06:48:48.499Z,7.20
2022-11-10T06:51:35.547Z,7.20
2022-11-10T06:54:22.430Z,7.20
2022-11-10T06:57:09.190Z,7.20
2022-11-10T06:59:56.318Z,7.30
2022-11-10T07:02:43.430Z,7.30
2022-11-10T07:05:31.762Z,7.30
2022-11-10T07:08:18.548Z,7.30
2022-11-10T07:11:05.556Z,7.30
2022-11-10T07:13:52.453Z,7.30
2022-11-10T07:16:39.446Z,7.40
2022-11-10T07:19:26.761Z,7.50
2022-11-10T07:22:15.424Z,7.60
2022-11-10T07:25:02.468Z,7.70
2022-11-10T07:27:54.989Z,7.70
2022-11-10T07:30:42.315Z,7.80
2022-11-10T07:33:30.337Z,7.80
2022-11-10T07:36:17.919Z,7.90
2022-11-10T07:39:06.224Z,8.00
2022-11-10T07:41:53.138Z,8.00
2022-11-10T07:44:39.951Z,8.10
2022-11-10T07:47:26.720Z,8.20
2022-11-10T07:50:13.947Z,8.40
2022-11-10T07:53:05.126Z,8.50
2022-11-10T07:55:54.912Z,8.60
2022-11-10T07:58:42.008Z,8.80
2022-11-10T08:01:28.810Z,8.90
2022-11-10T08:04:16.083Z,9.10
2022-11-10T08:07:02.960Z,9.30
2022-11-10T08:09:50.603Z,9.40
2022-11-10T08:12:38.821Z,9.60
2022-11-10T08:15:26.945Z,9.70
2022-11-10T08:18:18.390Z,9.80
2022-11-10T08:21:06.614Z,9.90
2022-11-10T08:23:53.329Z,10.10
2022-11-10T08:26:40.160Z,10.20
2022-11-10T08:29:28.238Z,10.30
2022-11-10T08:32:15.477Z,10.40
2022-11-10T08:35:02.315Z,10.50
2022-11-10T08:37:49.134Z,10.50
2022-11-10T08:40:36.067Z,10.50
2022-11-10T08:43:23.341Z,10.60
2022-11-10T08:46:12.024Z,10.70
2022-11-10T08:48:59.098Z,10.70
2022-11-10T08:51:46.047Z,10.90
2022-11-10T08:54:32.774Z,11.10
2022-11-10T08:57:19.643Z,11.20
2022-11-10T09:00:07.334Z,11.40
2022-11-10T09:02:56.107Z,11.50
2022-11-10T09:05:44.152Z,11.70
2022-11-10T09:08:33.827Z,11.80
2022-11-10T09:11:20.984Z,12.10
2022-11-10T09:14:07.696Z,12.30
2022-11-10T09:16:54.288Z,12.40
2022-11-10T09:19:42.466Z,12.40
2022-11-10T09:22:29.786Z,12.40
2022-11-10T09:25:16.649Z,12.50
2022-11-10T09:28:03.554Z,12.60
2022-11-10T09:30:51.803Z,12.70
2022-11-10T09:33:38.941Z,12.90
2022-11-10T09:36:27.077Z,12.90
2022-11-10T09:39:15.371Z,12.70
2022-11-10T09:42:02.412Z,12.60
2022-11-10T09:44:55.105Z,12.40
2022-11-10T09:48:02.445Z,12.40
2022-11-10T09:50:53.329Z,12.40
2022-11-10T09:53:48.483Z,12.40
2022-11-10T09:56:37.247Z,12.50
2022-11-10T09:59:30.046Z,12.60
2022-11-10T10:02:28.353Z,12.70
2022-11-10T10:05:46.959Z,12.80
2022-11-10T10:08:46.505Z,13.00
2022-11-10T10:11:52.817Z,13.30
2022-11-10T10:14:57.594Z,13.80
2022-11-10T10:17:53.851Z,14.20
2022-11-10T10:20:50.060Z,14.40
2022-11-10T10:24:07.615Z,14.50
2022-11-10T10:26:51.688Z,14.90
2022-11-10T10:29:42.021Z,15.40
2022-11-10T10:32:29.769Z,15.70
2022-11-10T10:35:18.251Z,15.90
2022-11-10T10:38:06.853Z,16.10
2022-11-10T10:40:58.507Z,16.50
2022-11-10T10:43:49.946Z,16.90
2022-11-10T10:46:46.349Z,17.20
2022-11-10T10:49:36.441Z,17.40
2022-11-10T10:52:25.452Z,17.70
2022-11-10T10:55:14.476Z,18.20
2022-11-10T10:58:03.270Z,18.70
2022-11-10T11:00:53.299Z,19.20
2022-11-10T11:03:43.830Z,19.70
2022-11-10T11:06:31.613Z,19.90
2022-11-10T11:09:23.693Z,20.10
2022-11-10T11:12:13.763Z,20.50
2022-11-10T11:15:14.983Z,21.00
2022-11-10T11:18:10.224Z,21.50
2022-11-10T11:21:03.550Z,21.70
2022-11-10T11:24:17.679Z,21.40
2022-11-10T11:27:11.603Z,21.40
2022-11-10T11:30:06.716Z,21.80
2022-11-10T11:33:20.459Z,21.90
2022-11-10T11:36:23.051Z,22.40
2022-11-10T11:39:21.881Z,22.80
2022-11-10T11:42:21.941Z,23.10
2022-11-10T11:45:17.736Z,23.30
2022-11-10T11:48:28.034Z,23.30
2022-11-10T11:51:19.922Z,23.30
2022-11-10T11:54:29.899Z,23.30
2022-11-10T11:57:31.663Z,23.60
2022-11-10T12:00:21.741Z,24.00
2022-11-10T12:03:30.088Z,24.30
2022-11-10T12:06:32.549Z,24.60
2022-11-10T12:09:29.390Z,24.80
2022-11-10T12:12:36.710Z,24.90
2022-11-10T12:15:31.997Z,25.20
2022-11-10T12:18:30.453Z,25.50
2022-11-10T12:21:24.182Z,25.70
2022-11-10T12:24:38.013Z,26.00
2022-11-10T12:27:29.605Z,26.60
2022-11-10T12:30:18.413Z,26.90
2022-11-10T12:33:13.964Z,27.10
2022-11-10T12:36:05.955Z,27.10
2022-11-10T12:39:04.098Z,27.10
2022-11-10T12:42:00.137Z,27.10
2022-11-10T12:45:01.422Z,27.10
2022-11-10T12:47:49.669Z,27.10
2022-11-10T12:50:48.253Z,27.40
2022-11-10T12:53:40.535Z,27.70
2022-11-10T12:56:33.677Z,28.00
2022-11-10T12:59:29.235Z,28.20
2022-11-10T13:02:26.378Z,28.00
2022-11-10T13:05:29.927Z,27.90
2022-11-10T13:08:27.243Z,27.70
2022-11-10T13:11:34.263Z,28.00
2022-11-10T13:14:26.895Z,28.00
2022-11-10T13:17:47.554Z,28.10
2022-11-10T13:20:49.188Z,28.10
2022-11-10T13:24:20.773Z,28.30
2022-11-10T13:27:14.964Z,28.60
2022-11-10T13:30:02.314Z,28.70
2022-11-10T13:32:49.494Z,28.80
2022-11-10T13:35:56.028Z,28.90
2022-11-10T13:38:44.354Z,28.50
2022-11-10T13:41:34.601Z,28.20
2022-11-10T13:44:28.609Z,28.00
2022-11-10T13:47:47.693Z,28.10
2022-11-10T13:50:48.858Z,28.10
2022-11-10T13:53:47.479Z,28.30
2022-11-10T13:56:51.588Z,28.60
2022-11-10T13:59:50.486Z,28.80
2022-11-10T14:02:53.201Z,29.00
2022-11-10T14:06:03.494Z,29.10
2022-11-10T14:08:56.136Z,29.30
2022-11-10T14:11:50.142Z,29.40
2022-11-10T14:14:48.490Z,29.50
2022-11-10T14:17:41.809Z,29.30
2022-11-10T14:20:35.274Z,29.30
2022-11-10T14:23:27.371Z,29.30
2022-11-10T14:26:23.170Z,29.30
2022-11-10T14:29:30.895Z,29.30
2022-11-10T14:32:22.488Z,29.20
2022-11-10T14:35:20.882Z,29.10
2022-11-10T14:38:20.421Z,28.90
2022-11-10T14:41:15.322Z,28.30
2022-11-10T14:44:03.747Z,28.00
2022-11-10T14:46:51.061Z,27.80
2022-11-10T14:49:39.677Z,27.70
2022-11-10T14:52:26.496Z,27.60
2022-11-10T14:55:19.278Z,27.30
2022-11-10T14:58:14.874Z,27.10
2022-11-10T15:01:03.216Z,26.90
2022-11-10T15:03:50.438Z,26.80
2022-11-10T15:06:45.754Z,26.60
2022-11-10T15:09:34.196Z,25.90
2022-11-10T15:12:27.073Z,24.90
2022-11-10T15:15:21.726Z,23.60
2022-11-10T15:18:27.042Z,22.30
2022-11-10T15:21:14.617Z,21.00
2022-11-10T15:24:06.767Z,20.00
2022-11-10T15:26:54.251Z,19.10
2022-11-10T15:29:42.350Z,18.40
2022-11-10T15:32:35.593Z,17.80
2022-11-10T15:35:33.515Z,17.20
2022-11-10T15:38:29.304Z,16.80
2022-11-10T15:41:27.726Z,16.40
2022-11-10T15:44:16.249Z,16.00
2022-11-10T15:47:05.629Z,15.70
2022-11-10T15:49:52.689Z,15.40
2022-11-10T15:52:40.414Z,15.10
2022-11-10T15:55:27.127Z,14.80
2022-11-10T15:58:18.174Z,14.60
2022-11-10T16:01:05.795Z,14.40
2022-11-10T16:03:52.841Z,14.10
2022-11-10T16:06:40.850Z,13.90
2022-11-10T16:09:28.513Z,13.70
2022-11-10T16:12:19.303Z,13.50
2022-11-10T16:15:14.778Z,13.30
2022-11-10T16:18:01.787Z,13.10
2022-11-10T16:20:48.938Z,12.90
2022-11-10T16:23:36.008Z,12.70
2022-11-10T16:26:25.913Z,12.50
2022-11-10T16:29:15.387Z,12.30
2022-11-10T16:32:04.376Z,12.20
2022-11-10T16:34:51.629Z,12.00
2022-11-10T16:37:38.513Z,11.90
2022-11-10T16:40:25.881Z,11.70
2022-11-10T16:43:16.794Z,11.60
2022-11-10T16:46:07.542Z,11.50
2022-11-10T16:48:58.623Z,11.30
2022-11-10T16:51:49.102Z,11.20
2022-11-10T16:54:36.582Z,11.10
2022-11-10T16:57:23.415Z,11.00
2022-11-10T17:00:12.845Z,10.90
2022-11-10T17:03:03.277Z,10.80
2022-11-10T17:05:51.707Z,10.70
2022-11-10T17:08:38.801Z,10.50
2022-11-10T17:11:26.072Z,10.40
2022-11-10T17:14:13.956Z,10.40
2022-11-10T17:17:01.125Z,10.30
2022-11-10T17:19:50.330Z,10.20
2022-11-10T17:22:38.601Z,10.10
2022-11-10T17:25:28.637Z,10.00
2022-11-10T17:28:17.383Z,9.90
2022-11-10T17:31:04.571Z,9.80
2022-11-10T17:33:51.764Z,9.70
2022-11-10T17:36:39.208Z,9.60
2022-11-10T17:39:27.803Z,9.60
2022-11-10T17:42:15.136Z,9.50
2022-11-10T17:45:02.022Z,9.40
2022-11-10T17:47:50.751Z,9.40
2022-11-10T17:50:39.290Z,9.30
2022-11-10T17:53:28.270Z,9.30
2022-11-10T17:56:16.682Z,9.20
2022-11-10T17:59:03.956Z,9.10
2022-11-10T18:01:51.471Z,9.10
2022-11-10T18:04:38.607Z,9.00
2022-11-10T18:07:25.640Z,8.90
2022-11-10T18:10:15.242Z,8.90
2022-11-10T18:13:03.646Z,8.80
2022-11-10T18:15:54.299Z,8.70
2022-11-10T18:18:42.244Z,8.70
2022-11-10T18:21:29.430Z,8.60
2022-11-10T18:24:16.665Z,8.50
2022-11-10T18:27:03.864Z,8.50
2022-11-10T18:29:53.622Z,8.40
2022-11-10T18:32:40.891Z,8.30
2022-11-10T18:35:28.005Z,8.30
2022-11-10T18:38:15.211Z,8.20
2022-11-10T18:41:25.675Z,8.20
2022-11-10T18:44:12.458Z,8.20
2022-11-10T18:47:00.691Z,8.10
2022-11-10T18:49:47.794Z,8.10
2022-11-10T18:52:34.523Z,8.10
2022-11-10T18:55:21.703Z,8.00
2022-11-10T18:58:08.638Z,7.90
2022-11-10T19:01:03.099Z,7.90
2022-11-10T19:03:51.548Z,7.90
2022-11-10T19:06:40.251Z,7.80
2022-11-10T19:09:27.781Z,7.80
2022-11-10T19:12:15.165Z,7.80
2022-11-10T19:15:02.730Z,7.70
2022-11-10T19:17:49.926Z,7.70
2022-11-10T19:20:39.321Z,7.60
2022-11-10T19:23:26.575Z,7.60
2022-11-10T19:26:19.529Z,7.60
2022-11-10T19:29:09.498Z,7.70
2022-11-10T19:31:56.784Z,7.90
2022-11-10T19:34:43.647Z,8.10
2022-11-10T19:37:35.592Z,8.30
2022-11-10T19:40:22.701Z,8.30
2022-11-10T19:43:10.273Z,8.30
2022-11-10T19:45:58.178Z,8.20
2022-11-10T19:48:45.663Z,8.00
2022-11-10T19:51:34.192Z,7.90
2022-11-10T19:54:22.861Z,7.80
2022-11-10T19:57:10.501Z,7.70
2022-11-10T19:59:58.127Z,7.50
2022-11-10T20:02:45.921Z,7.40
2022-11-10T20:05:33.181Z,7.30
2022-11-10T20:08:19.971Z,7.30
2022-11-10T20:11:10.434Z,7.30
2022-11-10T20:13:59.489Z,7.20
2022-11-10T20:16:46.927Z,7.20
2022-11-10T20:19:40.907Z,7.10
2022-11-10T20:22:28.616Z,7.10
2022-11-10T20:25:16.117Z,7.00
2022-11-10T20:28:06.444Z,7.00
2022-11-10T20:30:57.408Z,7.00
2022-11-10T20:33:45.556Z,6.90
2022-11-10T20:36:34.187Z,6.90
2022-11-10T20:39:21.344Z,6.80
2022-11-10T20:42:10.417Z,6.80
2022-11-10T20:44:58.830Z,6.70
2022-11-10T20:47:45.609Z,6.60
2022-11-10T20:50:33.513Z,6.60
2022-11-10T20:53:20.847Z,6.50
2022-11-10T20:56:08.723Z,6.40
2022-11-10T20:58:56.799Z,6.30
2022-11-10T21:01:45.484Z,6.30
2022-11-10T21:04:32.355Z,6.30
2022-11-10T21:07:19.201Z,6.30
2022-11-10T21:10:07.701Z,6.30
2022-11-10T21:12:55.054Z,6.30
2022-11-10T21:15:42.758Z,6.30
2022-11-10T21:18:33.501Z,6.20
2022-11-10T21:21:23.392Z,6.20
2022-11-10T21:24:12.398Z,6.20
2022-11-10T21:26:59.889Z,6.20
2022-11-10T21:29:47.026Z,6.20
2022-11-10T21:32:33.950Z,6.10
2022-11-10T21:35:22.860Z,6.10
2022-11-10T21:38:25.395Z,6.10
2022-11-10T21:41:13.406Z,6.00
2022-11-10T21:44:00.752Z,6.00
2022-11-10T21:46:47.798Z,6.00
2022-11-10T21:49:35.049Z,5.90
2022-11-10T21:52:23.106Z,5.90
2022-11-10T21:55:10.659Z,5.90
2022-11-10T21:57:59.030Z,5.90
2022-11-10T22:00:45.805Z,5.80
2022-11-10T22:03:33.655Z,5.80
2022-11-10T22:06:21.257Z,5.80
2022-11-10T22:09:09.659Z,5.70
2022-11-10T22:12:13.974Z,5.70
2022-11-10T22:15:18.354Z,5.70
2022-11-10T22:18:25.053Z,5.80
2022-11-10T22:21:12.153Z,5.70
2022-11-10T22:24:16.730Z,5.70
2022-11-10T22:27:05.895Z,5.70
2022-11-10T22:29:52.919Z,5.70
2022-11-10T22:32:39.773Z,5.70
2022-11-10T22:35:40.305Z,5.90
2022-11-10T22:38:27.299Z,5.90
2022-11-10T22:41:33.435Z,6.00
2022-11-10T22:44:24.991Z,6.10
2022-11-10T22:47:12.261Z,6.10
2022-11-10T22:49:59.380Z,6.20
2022-11-10T22:52:46.295Z,6.20
2022-11-10T22:55:33.141Z,6.20
2022-11-10T22:58:20.297Z,6.20
2022-11-10T23:01:10.971Z,6.20
2022-11-10T23:03:59.079Z,6.20
2022-11-10T23:06:46.186Z,6.20
2022-11-10T23:09:34.892Z,6.30
2022-11-10T23:12:21.869Z,6.30
2022-11-10T23:15:09.747Z,6.30
2022-11-10T23:18:03.748Z,6.20
2022-11-10T23:21:00.419Z,6.20
2022-11-10T23:23:48.539Z,6.10
2022-11-10T23:26:35.423Z,6.00
2022-11-10T23:29:22.188Z,5.90
2022-11-10T23:32:08.982Z,5.80
2022-11-10T23:34:57.124Z,5.70
2022-11-10T23:37:43.822Z,5.60
2022-11-10T23:40:30.916Z,5.50
2022-11-10T23:43:18.175Z,5.40
2022-11-10T23:46:08.122Z,5.30
2022-11-10T23:48:55.931Z,5.30
2022-11-10T23:51:44.698Z,5.20
2022-11-10T23:54:32.277Z,5.10
2022-11-10T23:57:19.692Z,5.10
